New Effington, SD (57255)

6:13 PM CST on February 07, 2016 (GMT -0600)
Wheaton Municipal | | Change Station
CLOSE
Current Station
Airport
Location: Wheaton NDB,
Elevation: 1024 ft
Nearby Weather Stations
Active Advisory: Winter Weather Advisory

Elev 1024 ft 45.78 °N, 96.54 °W | Updated 17 minutes ago

Overcast
Overcast
25 °F
Feels Like 9 °F
N
24
Wind Variable Wind from NW
Gusts 31 mph

Today
High -- | Low -- °F
--% Chance of Precip.
Yesterday
High -- | Low -- °F
Precip. -- in
Pressure 29.91 in
Visibility 1.5 miles
Clouds Scattered Clouds 600 ft
Mostly Cloudy 1800 ft
Overcast 2700 ft
Windchill 9 °F
Dew Point 21 °F
Humidity 86%
Rainfall 0.00 in
Snow Depth Not available.
7:42 AM 5:41 PM
Waning Crescent, 1% visible
METAR KETH 072356Z AUTO 32021G27KT 1 1/2SM -SN SCT006 BKN018 OVC027 M04/M06 A2991 RMK AO2
Pressure 29.91 in
Visibility 1.5 miles
Clouds Scattered Clouds 600 ft
Mostly Cloudy 1800 ft
Overcast 2700 ft
Windchill 9 °F
Dew Point 21 °F
Humidity 86%
Rainfall 0.00 in
Snow Depth Not available.
7:42 AM 5:41 PM
Waning Crescent, 1% visible
METAR KETH 072356Z AUTO 32021G27KT 1 1/2SM -SN SCT006 BKN018 OVC027 M04/M06 A2991 RMK AO2

10-Day Weather Forecast

Almanac

Astronomy

Feb. 07, 2016 Rise Set
Actual Time
Civil Twilight
Nautical Twilight
Astronomical Twilight
Moon
Length of Visible Light
Length of Day
Tomorrow will be .
, % of the Moon is Illuminated

Today's Extremes

State Highs State Lows

Community

WunderPhotos

Upload Photos

1,891,334 photos uploaded!

WunderBlog® & News

Nearby

Air Quality

  Air Quality AQ Index Pollutant
Not available.

Snow Depth

Station Depth Elevation

Earthquake Activity

City Distance Mag. Time & Date
Minimum magnitude displayed is 2.5.

Coastal Water Temperatures

Place Temperature

Stations

Nearby Weather Stations

Station Location Temp. Windchill Dew Point Humidity Wind Precip. Elev Updated Type
                   

Watches & Warnings

Winter Weather Advisory
Issued: 2:54 PM CST Feb. 7, 2016 – National Weather Service

... Winter Weather Advisory in effect until 6 am CST Monday...
... Blizzard Warning is cancelled...

The National Weather Service in Aberdeen has issued a Winter
Weather Advisory for blowing snow... which is in effect until 6 am
CST Monday. The Blizzard Warning has been cancelled.

* Expect snow to continue... diminishing around 6 am Monday.

* Additional snow accumulations of up to 1 inch are expected.

* Look for reduced visibilities at times. Damage to trees and
power lines is possible

* plan on slippery Road conditions... including during the
morning commute on Monday.

Precautionary/preparedness actions...

A Winter Weather Advisory for snow means periods of snow will
cause travel difficulties. Be prepared for snow covered roads and
limited visibilities... and use caution while driving. The latest
Road conditions for the state you are calling from can be obtained
by calling 5 1 1.